createdAt,value
2022-08-04T00:03:55.533Z,19.88
2022-08-04T00:14:23.738Z,19.71
2022-08-04T00:24:53.295Z,19.66
2022-08-04T00:35:22.679Z,19.61
2022-08-04T00:46:26.541Z,19.52
2022-08-04T00:57:34.189Z,19.43
2022-08-04T01:08:20.475Z,19.32
2022-08-04T01:19:00.902Z,19.32
2022-08-04T01:29:41.551Z,19.22
2022-08-04T01:40:18.066Z,18.98
2022-08-04T01:50:52.951Z,18.84
2022-08-04T02:01:22.637Z,18.84
2022-08-04T02:12:01.541Z,18.88
2022-08-04T02:22:34.174Z,18.74
2022-08-04T02:33:06.203Z,18.65
2022-08-04T02:43:51.130Z,18.66
2022-08-04T02:54:33.690Z,18.53
2022-08-04T03:05:15.198Z,18.53
2022-08-04T03:16:01.681Z,18.62
2022-08-04T03:27:02.442Z,18.46
2022-08-04T03:37:59.216Z,18.34
2022-08-04T03:48:51.301Z,18.33
2022-08-04T03:59:49.038Z,18.33
2022-08-04T04:10:31.902Z,18.33
2022-08-04T04:21:25.534Z,18.23
2022-08-04T04:32:07.054Z,18.21
2022-08-04T04:42:53.200Z,18.22
2022-08-04T04:53:29.072Z,17.96
2022-08-04T05:04:20.809Z,18.35
2022-08-04T05:14:52.211Z,19.15
2022-08-04T05:25:26.015Z,20.08
2022-08-04T05:36:23.486Z,21.10
2022-08-04T05:46:54.662Z,22.08
2022-08-04T05:57:25.382Z,22.98
2022-08-04T06:08:12.420Z,23.71
2022-08-04T06:19:59.528Z,24.23
2022-08-04T06:29:37.540Z,24.84
2022-08-04T06:40:30.899Z,25.40
2022-08-04T06:51:24.372Z,25.97
2022-08-04T07:01:51.766Z,26.48
2022-08-04T07:12:22.096Z,26.94
2022-08-04T07:22:53.049Z,27.28
2022-08-04T07:33:23.082Z,27.32
2022-08-04T07:43:52.760Z,27.48
2022-08-04T07:54:22.541Z,27.75
2022-08-04T08:04:52.504Z,27.74
2022-08-04T08:15:22.216Z,27.82
2022-08-04T08:25:51.576Z,27.80
2022-08-04T08:36:28.360Z,27.92
2022-08-04T08:47:09.198Z,28.13
2022-08-04T08:57:59.857Z,28.24
2022-08-04T09:08:52.431Z,28.25
2022-08-04T09:19:38.005Z,28.24
2022-08-04T09:30:12.509Z,28.13
2022-08-04T09:40:55.408Z,28.21
2022-08-04T09:51:56.720Z,28.16
2022-08-04T10:02:33.427Z,28.05
2022-08-04T10:13:19.666Z,28.23
2022-08-04T10:24:01.398Z,28.33
2022-08-04T10:34:38.390Z,28.32
2022-08-04T10:45:16.005Z,28.27
2022-08-04T10:56:05.561Z,28.36
2022-08-04T11:06:39.542Z,28.41
2022-08-04T11:17:13.268Z,28.45
2022-08-04T11:27:53.070Z,28.47
2022-08-04T11:38:32.200Z,28.48
2022-08-04T11:49:07.577Z,28.58
2022-08-04T11:59:37.587Z,28.66
2022-08-04T12:10:41.097Z,28.69
2022-08-04T12:21:20.355Z,28.72
2022-08-04T12:31:54.703Z,28.77
2022-08-04T12:42:31.644Z,28.76
2022-08-04T12:53:03.452Z,28.72
2022-08-04T13:03:39.644Z,28.76
2022-08-04T13:14:26.476Z,28.81
2022-08-04T13:26:41.488Z,28.89
2022-08-04T13:35:55.856Z,28.87
2022-08-04T13:46:28.915Z,28.83
2022-08-04T13:57:02.008Z,28.87
2022-08-04T14:07:33.248Z,28.86
2022-08-04T14:18:21.339Z,28.81
2022-08-04T14:29:09.604Z,28.77
2022-08-04T14:40:18.506Z,28.76
2022-08-04T14:50:44.933Z,28.69
2022-08-04T15:01:17.146Z,28.67
2022-08-04T15:11:47.680Z,28.66
2022-08-04T15:22:26.849Z,28.69
2022-08-04T15:33:00.014Z,28.68
2022-08-04T15:43:55.257Z,28.57
2022-08-04T15:54:32.579Z,28.51
2022-08-04T16:05:37.189Z,28.49
2022-08-04T16:16:06.692Z,28.51
2022-08-04T16:26:54.412Z,28.51
2022-08-04T16:37:26.005Z,28.46
2022-08-04T16:48:10.964Z,28.43
2022-08-04T16:58:53.951Z,28.40
2022-08-04T17:09:28.408Z,28.32
2022-08-04T17:19:58.231Z,28.19
2022-08-04T17:30:33.888Z,28.08
2022-08-04T17:41:19.068Z,27.93
2022-08-04T17:52:02.957Z,27.81
2022-08-04T18:02:37.855Z,27.65
2022-08-04T18:13:14.264Z,27.50
2022-08-04T18:23:51.007Z,27.31
2022-08-04T18:34:24.207Z,27.09
2022-08-04T18:44:53.766Z,26.83
2022-08-04T18:55:55.323Z,26.49
2022-08-04T19:06:12.899Z,26.26
2022-08-04T19:16:46.043Z,26.04
2022-08-04T19:27:17.207Z,25.80
2022-08-04T19:37:57.232Z,25.52
2022-08-04T19:48:31.440Z,25.35
2022-08-04T19:59:01.528Z,25.27
2022-08-04T20:09:31.151Z,25.12
2022-08-04T20:20:09.101Z,24.80
2022-08-04T20:30:38.661Z,24.53
2022-08-04T20:41:08.866Z,24.33
2022-08-04T20:51:40.736Z,24.18
2022-08-04T21:02:16.297Z,24.05
2022-08-04T21:12:49.842Z,23.85
2022-08-04T21:23:22.305Z,23.62
2022-08-04T21:33:58.350Z,23.42
2022-08-04T21:44:28.765Z,23.25
2022-08-04T21:54:58.187Z,23.07
2022-08-04T22:05:32.830Z,23.00
2022-08-04T22:16:04.324Z,22.87
2022-08-04T22:26:34.682Z,22.70
2022-08-04T22:37:12.451Z,22.57
2022-08-04T22:47:41.869Z,22.39
2022-08-04T22:58:22.029Z,22.20
2022-08-04T23:08:59.403Z,22.04
2022-08-04T23:19:30.141Z,21.85
2022-08-04T23:30:01.092Z,21.74
2022-08-04T23:40:34.306Z,21.65
2022-08-04T23:51:14.512Z,21.56
